createdAt,value
2019-04-20T00:01:58.175Z,11.90
2019-04-20T00:04:28.775Z,10.77
2019-04-20T00:06:56.051Z,9.10
2019-04-20T00:09:29.876Z,11.77
2019-04-20T00:12:03.838Z,14.00
2019-04-20T00:14:29.598Z,12.97
2019-04-20T00:16:56.861Z,11.53
2019-04-20T00:19:32.255Z,21.40
2019-04-20T00:22:15.295Z,11.00
2019-04-20T00:24:45.472Z,13.83
2019-04-20T00:27:37.122Z,26.57
2019-04-20T00:29:58.815Z,19.87
2019-04-20T00:32:29.380Z,17.10
2019-04-20T00:34:47.086Z,15.40
2019-04-20T00:37:15.169Z,11.93
2019-04-20T00:39:44.763Z,10.80
2019-04-20T00:42:15.974Z,15.27
2019-04-20T00:44:45.759Z,11.13
2019-04-20T00:47:25.298Z,12.20
2019-04-20T00:49:57.854Z,10.90
2019-04-20T00:52:30.972Z,17.57
2019-04-20T00:54:45.321Z,10.60
2019-04-20T00:57:24.766Z,13.50
2019-04-20T01:00:04.629Z,11.57
2019-04-20T01:02:29.988Z,13.60
2019-04-20T01:05:04.518Z,14.93
2019-04-20T01:07:28.923Z,15.17
2019-04-20T01:10:04.984Z,13.10
2019-04-20T01:12:36.809Z,11.77
2019-04-20T01:15:10.856Z,9.47
2019-04-20T01:17:37.881Z,12.47
2019-04-20T01:20:06.760Z,8.53
2019-04-20T01:22:40.174Z,10.37
2019-04-20T01:25:15.142Z,10.67
2019-04-20T01:27:49.933Z,15.87
2019-04-20T01:30:17.457Z,11.93
2019-04-20T01:32:55.363Z,22.10
2019-04-20T01:35:27.111Z,10.20
2019-04-20T01:37:57.542Z,10.20
2019-04-20T01:40:09.922Z,11.23
2019-04-20T01:42:40.347Z,16.30
2019-04-20T01:45:14.608Z,10.67
2019-04-20T01:47:45.598Z,10.00
2019-04-20T01:50:16.248Z,10.50
2019-04-20T01:52:51.762Z,10.13
2019-04-20T01:55:39.063Z,7.80
2019-04-20T01:58:17.572Z,11.17
2019-04-20T02:00:40.571Z,9.37
2019-04-20T02:03:31.121Z,6.77
2019-04-20T02:06:03.497Z,12.50
2019-04-20T02:08:29.480Z,7.60
2019-04-20T02:11:00.952Z,7.57
2019-04-20T02:13:36.233Z,11.87
2019-04-20T02:16:05.975Z,7.20
2019-04-20T02:18:41.634Z,6.50
2019-04-20T02:21:17.848Z,7.53
2019-04-20T02:23:38.731Z,8.80
2019-04-20T02:26:00.777Z,10.13
2019-04-20T02:28:55.419Z,8.90
2019-04-20T02:31:55.878Z,18.00
2019-04-20T02:34:04.128Z,7.30
2019-04-20T02:41:44.787Z,7.17
2019-04-20T02:44:18.000Z,9.70
2019-04-20T02:46:49.338Z,12.50
2019-04-20T02:49:26.348Z,11.83
2019-04-20T02:51:46.703Z,6.73
2019-04-20T02:54:17.081Z,13.23
2019-04-20T02:56:47.701Z,6.63
2019-04-20T02:59:41.950Z,6.10
2019-04-20T03:01:30.966Z,6.60
2019-04-20T03:03:48.971Z,7.00
2019-04-20T03:06:23.316Z,20.33
2019-04-20T03:09:06.328Z,7.60
2019-04-20T03:11:44.273Z,8.83
2019-04-20T03:14:03.618Z,7.27
2019-04-20T03:16:32.350Z,8.27
2019-04-20T03:18:58.339Z,11.27
2019-04-20T03:21:37.781Z,9.50
2019-04-20T03:24:12.646Z,6.80
2019-04-20T03:26:36.487Z,5.13
2019-04-20T03:29:05.599Z,8.23
2019-04-20T03:35:00.844Z,13.00
2019-04-20T03:37:19.384Z,6.47
2019-04-20T03:39:29.851Z,7.80
2019-04-20T03:41:46.627Z,7.73
2019-04-20T03:44:14.149Z,9.40
2019-04-20T03:46:47.661Z,7.27
2019-04-20T03:49:38.501Z,7.43
2019-04-20T03:52:02.272Z,9.60
2019-04-20T03:54:33.268Z,8.80
2019-04-20T03:57:21.209Z,13.77
2019-04-20T03:59:56.024Z,10.73
2019-04-20T04:02:45.727Z,13.83
2019-04-20T04:05:04.281Z,11.13
2019-04-20T04:07:26.786Z,14.53
2019-04-20T04:10:04.559Z,8.93
2019-04-20T04:12:54.745Z,8.50
2019-04-20T04:15:23.388Z,6.13
2019-04-20T04:17:52.994Z,8.13
2019-04-20T04:20:23.103Z,8.90
2019-04-20T04:23:10.349Z,7.20
2019-04-20T04:25:32.539Z,11.80
2019-04-20T04:28:09.803Z,8.60
2019-04-20T04:30:39.286Z,4.83
2019-04-20T04:33:41.501Z,16.30
2019-04-20T04:35:39.087Z,16.07
2019-04-20T04:38:12.140Z,9.00
2019-04-20T04:40:49.808Z,15.23
2019-04-20T04:43:16.044Z,5.30
2019-04-20T04:45:27.272Z,9.40
2019-04-20T04:47:55.666Z,11.23
2019-04-20T04:50:26.974Z,7.57
2019-04-20T04:53:04.606Z,6.20
2019-04-20T04:55:35.273Z,14.07
2019-04-20T04:57:55.802Z,8.60
2019-04-20T05:00:29.847Z,5.47
2019-04-20T05:03:03.842Z,10.90
2019-04-20T05:05:58.904Z,6.10
2019-04-20T05:08:18.104Z,7.93
2019-04-20T05:10:37.005Z,8.40
2019-04-20T05:13:05.462Z,8.93
2019-04-20T05:15:48.617Z,5.60
2019-04-20T05:18:28.892Z,6.73
2019-04-20T05:21:00.301Z,7.10
2019-04-20T05:23:20.762Z,32.50
2019-04-20T05:26:03.481Z,6.93
2019-04-20T05:28:24.215Z,12.30
2019-04-20T05:30:48.634Z,4.50
2019-04-20T05:33:25.482Z,19.20
2019-04-20T05:36:03.054Z,10.53
2019-04-20T05:38:41.824Z,9.77
2019-04-20T05:41:04.631Z,7.40
2019-04-20T05:43:47.047Z,18.37
2019-04-20T05:46:23.547Z,7.90
2019-04-20T05:48:50.968Z,7.00
2019-04-20T05:51:29.535Z,13.60
2019-04-20T05:53:50.453Z,7.63
2019-04-20T05:56:26.758Z,6.43
2019-04-20T05:58:50.512Z,7.77
2019-04-20T06:01:25.993Z,7.10
2019-04-20T06:03:49.992Z,7.87
2019-04-20T06:06:30.599Z,9.63
2019-04-20T06:08:59.246Z,12.60
2019-04-20T06:11:29.475Z,10.50
2019-04-20T06:13:50.603Z,7.37
2019-04-20T06:16:40.268Z,8.30
2019-04-20T06:19:15.599Z,8.00
2019-04-20T06:21:36.796Z,9.33
2019-04-20T06:24:08.533Z,11.53
2019-04-20T06:26:53.539Z,7.03
2019-04-20T06:29:10.096Z,8.57
2019-04-20T06:31:59.117Z,7.80
2019-04-20T06:34:30.155Z,8.93
2019-04-20T06:42:07.096Z,15.80
2019-04-20T06:44:33.125Z,9.10
2019-04-20T06:46:58.745Z,10.50
2019-04-20T06:49:31.471Z,11.97
2019-04-20T06:52:17.147Z,6.80
2019-04-20T06:54:42.169Z,13.90
2019-04-20T06:57:18.467Z,9.93
2019-04-20T06:59:59.811Z,12.70
2019-04-20T07:02:22.221Z,12.50
2019-04-20T07:04:48.607Z,12.53
2019-04-20T07:07:29.809Z,9.20
2019-04-20T07:10:05.247Z,7.80
2019-04-20T07:12:12.499Z,7.93
2019-04-20T07:14:41.552Z,7.77
2019-04-20T07:17:27.209Z,8.43
2019-04-20T07:19:56.348Z,8.13
2019-04-20T07:22:33.598Z,11.30
2019-04-20T07:25:02.196Z,11.57
2019-04-20T07:27:30.824Z,9.57
2019-04-20T07:30:06.274Z,9.33
2019-04-20T07:32:38.941Z,6.97
2019-04-20T07:35:01.555Z,7.93
2019-04-20T07:38:04.620Z,6.30
2019-04-20T07:40:10.419Z,14.90
2019-04-20T07:42:42.534Z,13.53
2019-04-20T07:45:07.633Z,13.90
2019-04-20T07:47:41.641Z,8.43
2019-04-20T07:50:04.848Z,9.93
2019-04-20T07:52:31.687Z,15.80
2019-04-20T07:55:26.340Z,7.53
2019-04-20T07:57:35.403Z,10.23
2019-04-20T08:00:04.846Z,10.20
2019-04-20T08:03:03.354Z,10.10
2019-04-20T08:05:25.576Z,10.20
2019-04-20T08:07:53.644Z,11.07
2019-04-20T08:10:34.014Z,8.93
2019-04-20T08:13:09.519Z,14.90
2019-04-20T08:15:42.909Z,10.87
2019-04-20T08:18:07.442Z,14.20
2019-04-20T08:20:33.106Z,10.70
2019-04-20T08:23:09.786Z,11.00
2019-04-20T08:25:27.683Z,11.60
2019-04-20T08:28:06.329Z,13.70
2019-04-20T08:30:53.796Z,8.53
2019-04-20T08:33:28.799Z,16.20
2019-04-20T08:36:02.839Z,13.50
2019-04-20T08:38:58.268Z,13.30
2019-04-20T08:41:00.303Z,9.77
2019-04-20T08:43:43.835Z,15.37
2019-04-20T08:45:58.970Z,12.40
2019-04-20T08:48:33.253Z,10.27
2019-04-20T08:51:02.586Z,16.30
2019-04-20T08:53:34.692Z,18.07
2019-04-20T08:55:54.278Z,10.43
2019-04-20T08:58:11.415Z,11.40
2019-04-20T09:00:48.579Z,14.00
2019-04-20T09:03:17.948Z,16.40
2019-04-20T09:05:54.750Z,11.93
2019-04-20T09:08:18.900Z,13.53
2019-04-20T09:11:03.909Z,12.37
2019-04-20T09:13:21.227Z,17.10
2019-04-20T09:15:42.570Z,11.13
2019-04-20T09:18:26.094Z,10.20
2019-04-20T09:20:56.024Z,12.60
2019-04-20T09:23:45.584Z,17.97
2019-04-20T09:26:16.204Z,19.10
2019-04-20T09:28:39.394Z,15.13
2019-04-20T09:31:22.622Z,14.57
2019-04-20T09:33:56.862Z,14.53
2019-04-20T09:36:35.227Z,13.90
2019-04-20T09:39:10.392Z,14.50
2019-04-20T09:41:58.107Z,15.43
2019-04-20T09:44:00.804Z,15.60
2019-04-20T09:46:30.913Z,13.67
2019-04-20T09:49:06.361Z,14.73
2019-04-20T09:51:44.877Z,12.60
2019-04-20T09:54:22.271Z,18.47
2019-04-20T09:56:46.366Z,15.23
2019-04-20T09:59:19.218Z,16.93
2019-04-20T10:01:35.162Z,16.80
2019-04-20T10:04:01.374Z,17.77
2019-04-20T10:06:34.157Z,23.73
2019-04-20T10:09:03.468Z,14.77
2019-04-20T10:11:31.856Z,15.33
2019-04-20T10:14:01.916Z,15.40
2019-04-20T10:16:31.509Z,19.80
2019-04-20T10:19:00.745Z,15.17
2019-04-20T10:21:30.009Z,17.05
2019-04-20T10:23:58.950Z,14.43
2019-04-20T10:26:27.554Z,13.27
2019-04-20T10:28:57.381Z,14.67
2019-04-20T10:31:26.452Z,18.93
2019-04-20T10:33:55.680Z,18.47
2019-04-20T10:36:27.744Z,14.10
2019-04-20T10:38:58.236Z,43.60
2019-04-20T10:41:37.919Z,19.73
2019-04-20T10:44:00.790Z,20.65
2019-04-20T10:46:31.096Z,17.23
2019-04-20T10:49:03.993Z,10.78
2019-04-20T10:51:33.708Z,11.75
2019-04-20T10:54:02.914Z,12.23
2019-04-20T10:56:31.782Z,10.57
2019-04-20T10:59:01.448Z,12.63
2019-04-20T11:01:31.571Z,10.88
2019-04-20T11:04:03.091Z,24.25
2019-04-20T11:06:32.443Z,10.40
2019-04-20T11:09:02.550Z,14.20
2019-04-20T11:11:32.473Z,9.40
2019-04-20T11:14:08.346Z,10.10
2019-04-20T11:16:34.122Z,14.13
2019-04-20T11:19:03.308Z,18.55
2019-04-20T11:21:32.827Z,9.80
2019-04-20T11:24:02.481Z,9.73
2019-04-20T11:26:32.162Z,15.97
2019-04-20T11:29:02.221Z,16.90
2019-04-20T11:31:36.370Z,6.55
2019-04-20T11:34:03.889Z,15.68
2019-04-20T11:36:33.512Z,11.12
2019-04-20T11:39:07.120Z,9.87
2019-04-20T11:41:37.735Z,11.13
2019-04-20T11:44:07.623Z,14.67
2019-04-20T11:46:36.671Z,13.53
2019-04-20T11:49:05.770Z,22.40
2019-04-20T11:51:34.594Z,14.87
2019-04-20T11:54:04.248Z,15.37
2019-04-20T11:56:38.270Z,10.60
2019-04-20T11:59:05.336Z,12.93
2019-04-20T12:01:49.224Z,11.53
2019-04-20T12:04:24.809Z,12.93
2019-04-20T12:06:43.355Z,15.77
2019-04-20T12:09:14.943Z,16.00
2019-04-20T12:11:58.041Z,16.40
2019-04-20T12:14:16.663Z,11.13
2019-04-20T12:16:48.383Z,13.43
2019-04-20T12:19:16.886Z,18.93
2019-04-20T12:21:45.677Z,17.40
2019-04-20T12:24:14.389Z,14.90
2019-04-20T12:26:42.836Z,14.17
2019-04-20T12:29:12.345Z,11.70
2019-04-20T12:31:44.298Z,13.40
2019-04-20T12:34:11.055Z,10.67
2019-04-20T12:36:39.589Z,7.90
2019-04-20T12:39:09.369Z,11.20
2019-04-20T12:41:45.262Z,19.70
2019-04-20T12:44:08.064Z,14.90
2019-04-20T12:46:36.538Z,14.83
2019-04-20T12:49:05.476Z,11.57
2019-04-20T12:51:43.686Z,12.83
2019-04-20T12:54:04.734Z,21.10
2019-04-20T12:56:33.247Z,7.80
2019-04-20T12:59:01.731Z,17.60
2019-04-20T13:01:30.313Z,12.10
2019-04-20T13:03:59.782Z,10.70
2019-04-20T13:06:30.044Z,13.27
2019-04-20T13:09:00.641Z,9.13
2019-04-20T13:11:45.251Z,11.90
2019-04-20T13:14:26.431Z,13.40
2019-04-20T13:16:55.612Z,22.23
2019-04-20T13:19:25.337Z,10.47
2019-04-20T13:21:54.780Z,14.93
2019-04-20T13:24:23.438Z,12.93
2019-04-20T13:26:53.059Z,15.37
2019-04-20T13:29:22.724Z,11.30
2019-04-20T13:31:52.988Z,10.67
2019-04-20T13:34:22.263Z,11.60
2019-04-20T13:36:50.983Z,10.40
2019-04-20T13:39:19.895Z,19.20
2019-04-20T13:42:00.721Z,12.47
2019-04-20T13:44:20.058Z,18.00
2019-04-20T13:46:49.166Z,13.30
2019-04-20T13:49:18.753Z,14.70
2019-04-20T13:51:48.653Z,13.63
2019-04-20T13:54:21.079Z,15.47
2019-04-20T13:56:50.056Z,14.00
2019-04-20T13:59:23.562Z,15.40
2019-04-20T14:01:57.142Z,13.03
2019-04-20T14:04:28.502Z,11.03
2019-04-20T14:06:59.411Z,11.27
2019-04-20T14:09:28.093Z,11.70
2019-04-20T14:12:04.740Z,13.53
2019-04-20T14:14:27.007Z,15.67
2019-04-20T14:16:56.927Z,11.27
2019-04-20T14:19:25.609Z,13.43
2019-04-20T14:21:54.501Z,13.40
2019-04-20T14:24:22.982Z,16.13
2019-04-20T14:26:52.782Z,9.80
2019-04-20T14:29:23.097Z,12.77
2019-04-20T14:31:52.140Z,14.83
2019-04-20T14:34:20.811Z,10.67
2019-04-20T14:36:50.850Z,16.63
2019-04-20T14:39:20.374Z,16.77
2019-04-20T14:41:49.041Z,10.10
2019-04-20T14:44:17.612Z,11.10
2019-04-20T14:46:47.461Z,9.00
2019-04-20T14:49:16.630Z,11.03
2019-04-20T14:51:45.815Z,10.53
2019-04-20T14:54:14.412Z,8.80
2019-04-20T14:56:43.481Z,8.70
2019-04-20T14:59:15.671Z,18.17
2019-04-20T15:01:46.013Z,13.20
2019-04-20T15:04:17.915Z,6.73
2019-04-20T15:06:44.719Z,9.30
2019-04-20T15:09:13.202Z,19.70
2019-04-20T15:11:44.261Z,22.00
2019-04-20T15:14:14.542Z,9.90
2019-04-20T15:16:44.501Z,11.33
2019-04-20T15:19:15.697Z,8.93
2019-04-20T15:21:47.444Z,9.80
2019-04-20T15:24:16.076Z,8.33
2019-04-20T15:26:44.598Z,9.10
2019-04-20T15:29:14.528Z,16.40
2019-04-20T15:31:44.019Z,12.47
2019-04-20T15:34:12.972Z,11.40
2019-04-20T15:36:42.275Z,12.37
2019-04-20T15:39:11.422Z,9.20
2019-04-20T15:41:41.036Z,8.97
2019-04-20T15:44:11.141Z,9.77
2019-04-20T15:46:40.487Z,8.07
2019-04-20T15:49:10.290Z,19.97
2019-04-20T15:51:39.758Z,13.67
2019-04-20T15:54:09.506Z,7.37
2019-04-20T15:56:44.628Z,11.20
2019-04-20T15:59:08.529Z,13.80
2019-04-20T16:01:38.705Z,17.30
2019-04-20T16:04:21.620Z,9.43
2019-04-20T16:06:43.264Z,19.20
2019-04-20T16:09:12.447Z,13.60
2019-04-20T16:11:41.298Z,13.50
2019-04-20T16:14:13.557Z,7.00
2019-04-20T16:16:42.576Z,12.77
2019-04-20T16:19:25.848Z,13.20
2019-04-20T16:21:41.713Z,16.40
2019-04-20T16:24:12.956Z,12.70
2019-04-20T16:27:02.054Z,10.07
2019-04-20T16:29:31.447Z,17.53
2019-04-20T16:32:00.517Z,22.80
2019-04-20T16:34:29.656Z,11.50
2019-04-20T16:36:59.825Z,12.30
2019-04-20T16:39:28.454Z,11.43
2019-04-20T16:41:58.232Z,11.33
2019-04-20T16:44:27.354Z,8.33
2019-04-20T16:46:56.302Z,13.20
2019-04-20T16:49:26.949Z,13.17
2019-04-20T16:51:56.874Z,11.93
2019-04-20T16:54:26.022Z,11.50
2019-04-20T16:56:55.530Z,13.40
2019-04-20T16:59:24.770Z,13.33
2019-04-20T17:01:53.981Z,16.90
2019-04-20T17:04:24.690Z,9.93
2019-04-20T17:07:12.224Z,12.37
2019-04-20T17:09:42.017Z,10.80
2019-04-20T17:12:11.970Z,19.87
2019-04-20T17:14:40.518Z,17.70
2019-04-20T17:17:09.910Z,12.50
2019-04-20T17:19:39.755Z,10.83
2019-04-20T17:22:09.661Z,16.33
2019-04-20T17:24:39.771Z,11.57
2019-04-20T17:27:13.036Z,13.70
2019-04-20T17:29:52.879Z,11.77
2019-04-20T17:32:23.292Z,10.13
2019-04-20T17:35:01.966Z,11.63
2019-04-20T17:37:22.650Z,12.33
2019-04-20T17:40:10.805Z,14.77
2019-04-20T17:42:38.859Z,8.83
2019-04-20T17:45:00.792Z,10.93
2019-04-20T17:47:44.581Z,14.70
2019-04-20T17:50:14.735Z,13.00
2019-04-20T17:52:47.526Z,11.30
2019-04-20T17:55:01.720Z,15.30
2019-04-20T17:57:31.194Z,20.87
2019-04-20T18:00:13.444Z,24.70
2019-04-20T18:03:04.254Z,12.17
2019-04-20T18:05:44.671Z,15.70
2019-04-20T18:08:12.084Z,11.10
2019-04-20T18:10:33.754Z,11.40
2019-04-20T18:12:53.429Z,12.73
2019-04-20T18:15:35.919Z,14.20
2019-04-20T18:18:10.274Z,14.77
2019-04-20T18:20:28.784Z,16.43
2019-04-20T18:22:58.736Z,12.40
2019-04-20T18:25:57.448Z,11.57
2019-04-20T18:28:13.634Z,10.53
2019-04-20T18:30:41.689Z,9.80
2019-04-20T18:33:01.399Z,17.40
2019-04-20T18:35:37.627Z,12.33
2019-04-20T18:38:06.413Z,13.50
2019-04-20T18:40:40.254Z,15.53
2019-04-20T18:43:08.163Z,22.23
2019-04-20T18:45:53.077Z,12.30
2019-04-20T18:48:24.614Z,12.83
2019-04-20T18:50:40.349Z,9.40
2019-04-20T18:53:05.685Z,8.33
2019-04-20T18:55:46.255Z,11.07
2019-04-20T18:58:06.935Z,9.80
2019-04-20T19:00:42.174Z,8.77
2019-04-20T19:03:13.275Z,12.97
2019-04-20T19:05:37.877Z,13.00
2019-04-20T19:08:10.520Z,10.47
2019-04-20T19:10:39.827Z,20.03
2019-04-20T19:13:14.767Z,7.93
2019-04-20T19:16:03.684Z,11.73
2019-04-20T19:18:50.690Z,16.40
2019-04-20T19:21:06.923Z,13.03
2019-04-20T19:23:40.601Z,12.93
2019-04-20T19:26:11.907Z,13.43
2019-04-20T19:28:44.241Z,18.53
2019-04-20T19:31:22.239Z,16.67
2019-04-20T19:33:55.322Z,11.00
2019-04-20T19:36:20.590Z,12.73
2019-04-20T19:38:50.010Z,11.57
2019-04-20T19:41:25.441Z,12.60
2019-04-20T19:43:49.063Z,10.73
2019-04-20T19:48:53.982Z,9.67
2019-04-20T19:51:32.916Z,13.13
2019-04-20T19:54:06.570Z,15.10
2019-04-20T19:56:33.673Z,13.80
2019-04-20T19:58:56.334Z,11.83
2019-04-20T20:01:15.689Z,11.90
2019-04-20T20:03:48.340Z,15.40
2019-04-20T20:06:23.828Z,14.97
2019-04-20T20:08:53.181Z,14.23
2019-04-20T20:11:25.651Z,32.03
2019-04-20T20:13:51.483Z,30.03
2019-04-20T20:16:26.758Z,29.37
2019-04-20T20:18:58.857Z,61.40
2019-04-20T20:21:31.575Z,48.07
2019-04-20T20:23:47.864Z,51.47
2019-04-20T20:26:23.979Z,52.87
2019-04-20T20:29:02.610Z,47.83
2019-04-20T20:31:29.650Z,52.50
2019-04-20T20:34:02.956Z,57.67
2019-04-20T20:36:21.959Z,42.17
2019-04-20T20:38:52.343Z,45.63
2019-04-20T20:41:28.253Z,42.00
2019-04-20T20:43:59.775Z,46.37
2019-04-20T20:46:31.973Z,45.70
2019-04-20T20:49:12.086Z,53.27
2019-04-20T20:51:46.946Z,41.53
2019-04-20T20:54:02.179Z,41.87
2019-04-20T20:56:29.104Z,49.67
2019-04-20T20:59:06.732Z,35.20
2019-04-20T21:01:27.536Z,39.23
2019-04-20T21:03:56.691Z,36.83
2019-04-20T21:06:26.569Z,38.10
2019-04-20T21:08:56.582Z,34.03
2019-04-20T21:11:29.475Z,39.80
2019-04-20T21:13:57.559Z,37.00
2019-04-20T21:16:31.415Z,36.97
2019-04-20T21:19:16.000Z,43.73
2019-04-20T21:21:42.485Z,33.07
2019-04-20T21:24:07.544Z,34.60
2019-04-20T21:26:38.694Z,34.27
2019-04-20T21:29:03.871Z,26.77
2019-04-20T21:31:32.750Z,42.93
2019-04-20T21:34:08.624Z,31.90
2019-04-20T21:36:33.495Z,34.63
2019-04-20T21:39:03.602Z,27.10
2019-04-20T21:41:33.708Z,38.93
2019-04-20T21:44:05.516Z,31.30
2019-04-20T21:46:40.919Z,31.93
2019-04-20T21:49:21.860Z,27.70
2019-04-20T21:51:46.611Z,23.30
2019-04-20T21:54:11.922Z,32.07
2019-04-20T21:56:49.844Z,27.77
2019-04-20T21:59:18.506Z,35.23
2019-04-20T22:01:53.198Z,40.47
2019-04-20T22:04:12.310Z,27.77
2019-04-20T22:06:40.767Z,26.57
2019-04-20T22:09:12.708Z,25.97
2019-04-20T22:11:42.053Z,30.83
2019-04-20T22:14:17.313Z,28.20
2019-04-20T22:16:46.044Z,26.50
2019-04-20T22:19:26.247Z,41.80
2019-04-20T22:21:53.163Z,30.73
2019-04-20T22:24:28.287Z,29.47
2019-04-20T22:26:54.849Z,27.67
2019-04-20T22:29:12.384Z,24.00
2019-04-20T22:31:46.107Z,23.50
2019-04-20T22:34:16.352Z,29.13
2019-04-20T22:36:46.412Z,26.97
2019-04-20T22:39:16.145Z,35.93
2019-04-20T22:41:54.652Z,23.57
2019-04-20T22:44:20.420Z,20.20
2019-04-20T22:46:47.681Z,23.43
2019-04-20T22:49:33.667Z,22.60
2019-04-20T22:51:58.143Z,18.73
2019-04-20T22:54:34.056Z,18.20
2019-04-20T22:56:59.897Z,31.23
2019-04-20T22:59:22.865Z,20.10
2019-04-20T23:01:56.132Z,18.17
2019-04-20T23:04:19.200Z,20.90
2019-04-20T23:06:50.057Z,18.83
2019-04-20T23:09:18.742Z,19.73
2019-04-20T23:11:47.633Z,16.93
2019-04-20T23:14:16.406Z,16.60
2019-04-20T23:16:49.157Z,23.80
2019-04-20T23:19:29.077Z,19.30
2019-04-20T23:21:52.342Z,22.20
2019-04-20T23:24:17.126Z,24.60
2019-04-20T23:26:48.948Z,17.47
2019-04-20T23:29:17.691Z,21.57
2019-04-20T23:31:55.335Z,14.80
2019-04-20T23:34:21.615Z,20.63
2019-04-20T23:36:50.214Z,11.47
2019-04-20T23:39:17.440Z,20.23
2019-04-20T23:41:53.753Z,21.70
2019-04-20T23:44:18.971Z,19.07
2019-04-20T23:46:53.391Z,18.43
2019-04-20T23:49:29.894Z,22.50
2019-04-20T23:52:23.479Z,19.80
2019-04-20T23:54:29.422Z,23.53
2019-04-20T23:56:55.743Z,20.10
2019-04-20T23:59:29.016Z,16.87
